createdAt,value
2023-03-22T00:01:14.295Z,8.82
2023-03-22T00:16:15.786Z,8.48
2023-03-22T00:31:17.300Z,8.46
2023-03-22T00:46:20.163Z,8.29
2023-03-22T01:01:21.677Z,8.14
2023-03-22T01:16:23.245Z,8.12
2023-03-22T01:31:25.156Z,7.98
2023-03-22T01:46:26.798Z,7.64
2023-03-22T02:01:28.367Z,7.32
2023-03-22T02:16:30.824Z,7.24
2023-03-22T02:31:37.409Z,7.18
2023-03-22T02:46:39.103Z,6.93
2023-03-22T03:01:40.647Z,7.12
2023-03-22T03:16:46.642Z,6.88
2023-03-22T03:31:48.242Z,7.07
2023-03-22T03:46:49.707Z,6.72
2023-03-22T04:01:52.565Z,6.56
2023-03-22T04:17:01.455Z,6.76
2023-03-22T04:32:04.490Z,6.66
2023-03-22T04:47:12.657Z,6.51
2023-03-22T05:02:14.252Z,6.14
2023-03-22T05:17:18.041Z,6.23
2023-03-22T05:32:19.594Z,5.98
2023-03-22T05:47:22.595Z,5.98
2023-03-22T06:02:33.183Z,6.34
2023-03-22T06:17:35.152Z,7.71
2023-03-22T06:32:37.026Z,9.24
2023-03-22T06:47:39.262Z,12.33
2023-03-22T07:02:59.044Z,14.55
2023-03-22T07:18:20.732Z,16.18
2023-03-22T07:33:22.276Z,17.11
2023-03-22T07:48:24.250Z,17.13
2023-03-22T08:04:03.981Z,17.98
2023-03-22T08:19:28.202Z,17.75
2023-03-22T08:34:29.786Z,17.61
2023-03-22T08:49:31.584Z,19.29
2023-03-22T09:04:41.079Z,19.13
2023-03-22T09:19:43.644Z,20.30
2023-03-22T09:34:45.631Z,19.47
2023-03-22T09:49:53.632Z,19.39
2023-03-22T10:04:55.560Z,20.49
2023-03-22T10:19:56.965Z,20.19
2023-03-22T10:34:58.409Z,20.44
2023-03-22T10:49:59.895Z,19.73
2023-03-22T11:05:01.500Z,19.70
2023-03-22T11:20:07.838Z,21.07
2023-03-22T11:35:09.389Z,21.31
2023-03-22T11:50:10.886Z,20.38
2023-03-22T12:05:13.509Z,18.59
2023-03-22T12:20:14.973Z,20.14
2023-03-22T12:35:18.099Z,19.51
2023-03-22T12:50:19.871Z,19.96
2023-03-22T13:05:21.279Z,20.19
2023-03-22T13:20:25.659Z,19.22
2023-03-22T13:35:28.376Z,17.45
2023-03-22T13:50:30.021Z,17.62
2023-03-22T14:05:31.437Z,16.86
2023-03-22T14:20:32.854Z,16.96
